Time;durP1;ratioP1;P1;durP2;ratioP2;P2;SDS_P1;SDS_P2;PMS_P1;PMS_P2;Temp;Humidity;BMP_temperature;BMP_pressure;BME280_temperature;BME280_humidity;BME280_pressure;Samples;Min_cycle;Max_cycle;Signal;HPM_P1;HPM_P2
2023/02/11 00:00:18;;;;;;;30.10;19.10;;;;;;;0.34;74.89;101033.31;105768;1259;60509;-72
2023/02/11 00:02:53;;;;;;;27.80;19.00;;;;;;;0.33;75.02;101036.08;105642;1257;73902;-73
2023/02/11 00:05:26;;;;;;;30.20;19.10;;;;;;;0.32;75.18;101036.40;105335;1261;68885;-75
2023/02/11 00:07:55;;;;;;;26.80;19.40;;;;;;;0.31;75.29;101032.62;105420;1259;73717;-72
2023/02/11 00:10:29;;;;;;;30.00;18.10;;;;;;;0.30;75.36;101031.59;105186;1265;60591;-71
2023/02/11 00:13:05;;;;;;;24.60;17.60;;;;;;;0.29;75.57;101026.24;105720;1256;60834;-72
2023/02/11 00:15:40;;;;;;;31.30;19.10;;;;;;;0.29;75.70;101031.49;105732;1262;72916;-74
2023/02/11 00:18:20;;;;;;;27.50;20.00;;;;;;;0.30;75.80;101036.92;105760;1256;68947;-72
2023/02/11 00:20:50;;;;;;;29.40;19.40;;;;;;;0.30;75.98;101031.55;105557;1262;73499;-71
2023/02/11 00:23:20;;;;;;;26.70;18.80;;;;;;;0.34;76.07;101034.39;105464;1256;61147;-72
2023/02/11 00:25:49;;;;;;;24.20;17.10;;;;;;;0.40;76.15;101035.58;105478;1256;61074;-72
2023/02/11 00:28:45;;;;;;;26.40;18.80;;;;;;;0.48;76.12;101037.80;105659;1262;74317;-70
2023/02/11 00:31:23;;;;;;;30.20;18.80;;;;;;;0.56;76.06;101037.38;105510;1257;68274;-70
2023/02/11 00:33:53;;;;;;;23.90;18.40;;;;;;;0.60;76.05;101042.99;105453;1256;72581;-69
2023/02/11 00:36:24;;;;;;;25.80;17.00;;;;;;;0.62;75.85;101038.27;105266;1261;60444;-71
2023/02/11 00:38:54;;;;;;;29.10;20.20;;;;;;;0.63;75.72;101036.60;105644;1260;60553;-72
2023/02/11 00:41:34;;;;;;;28.30;18.40;;;;;;;0.62;75.80;101030.06;105638;1262;72525;-70
2023/02/11 00:44:04;;;;;;;30.20;19.30;;;;;;;0.60;75.93;101026.67;105518;1262;65977;-71
2023/02/11 00:46:33;;;;;;;28.90;16.70;;;;;;;0.59;75.87;101029.77;105434;1260;72852;-71
2023/02/11 00:49:01;;;;;;;30.20;19.50;;;;;;;0.58;75.95;101029.89;105602;1260;59875;-72
2023/02/11 00:51:30;;;;;;;24.20;17.60;;;;;;;0.56;76.04;101028.52;105732;1256;61130;-71
2023/02/11 00:53:59;;;;;;;31.50;20.30;;;;;;;0.55;76.11;101023.38;105494;1260;74878;-71
2023/02/11 00:56:28;;;;;;;27.80;19.20;;;;;;;0.53;76.34;101021.61;105431;1256;68299;-71
2023/02/11 00:58:56;;;;;;;29.80;19.00;;;;;;;0.51;76.29;101021.48;105757;1262;72156;-71
2023/02/11 01:01:24;;;;;;;31.70;20.60;;;;;;;0.51;76.72;101014.94;105267;1260;60809;-72
2023/02/11 01:03:53;;;;;;;32.60;21.00;;;;;;;0.53;76.66;101014.70;105352;1257;60474;-73
2023/02/11 01:06:23;;;;;;;27.40;18.10;;;;;;;0.57;76.56;101009.92;105872;1256;73593;-71
2023/02/11 01:08:51;;;;;;;30.20;18.80;;;;;;;0.60;76.71;101016.14;105828;1259;67472;-70
2023/02/11 01:11:19;;;;;;;30.60;19.20;;;;;;;0.64;76.71;101013.20;105726;1259;72855;-69
2023/02/11 01:13:48;;;;;;;33.20;22.60;;;;;;;0.67;76.49;101013.86;105449;1257;60596;-74
2023/02/11 01:16:16;;;;;;;30.40;19.40;;;;;;;0.67;76.51;101016.50;105892;1261;60498;-72
2023/02/11 01:18:46;;;;;;;28.60;18.90;;;;;;;0.66;76.79;101020.27;105857;1255;72890;-71
2023/02/11 01:21:15;;;;;;;26.50;17.70;;;;;;;0.65;76.69;101018.63;105823;1256;67896;-72
2023/02/11 01:23:43;;;;;;;32.70;19.30;;;;;;;0.64;76.80;101020.83;105820;1256;71741;-68
2023/02/11 01:26:12;;;;;;;30.20;20.30;;;;;;;0.62;76.75;101023.70;105430;1256;60784;-71
2023/02/11 01:28:40;;;;;;;29.30;18.10;;;;;;;0.60;76.96;101022.07;105576;1260;60556;-71
2023/02/11 01:31:08;;;;;;;27.60;19.40;;;;;;;0.59;76.93;101020.06;105839;1260;73766;-69
2023/02/11 01:33:36;;;;;;;30.10;19.30;;;;;;;0.58;76.98;101019.66;104681;1260;1002977;-70
2023/02/11 01:36:06;;;;;;;27.50;18.00;;;;;;;0.56;76.67;101016.37;104555;1262;1002877;-71
2023/02/11 01:38:34;;;;;;;26.30;18.70;;;;;;;0.56;77.04;101021.86;105427;1260;62582;-71
2023/02/11 01:41:05;;;;;;;26.50;16.70;;;;;;;0.57;77.01;101016.77;105369;1256;61540;-70
2023/02/11 01:43:35;;;;;;;30.10;20.40;;;;;;;0.61;77.19;101025.38;105449;1260;72737;-71
2023/02/11 01:46:23;;;;;;;24.30;17.40;;;;;;;0.65;77.43;101021.41;105889;1260;66462;-70
2023/02/11 01:48:54;;;;;;;28.90;18.70;;;;;;;0.68;77.27;101016.14;105368;1267;71667;-70
2023/02/11 01:51:26;;;;;;;31.50;20.30;;;;;;;0.70;77.17;101017.97;105399;1257;61609;-70
2023/02/11 01:59:37;;;;;;;30.50;18.00;;;;;;;0.66;76.99;100996.96;105732;1260;68319;-72
2023/02/11 02:02:08;;;;;;;27.20;19.40;;;;;;;0.64;77.05;101001.73;105736;1260;74494;-71
2023/02/11 02:05:01;;;;;;;23.30;16.80;;;;;;;0.63;77.00;100999.09;105914;1255;60431;-71
2023/02/11 02:15:51;;;;;;;30.30;18.30;;;;;;;0.63;76.45;100987.93;102410;1295;600068;-71
2023/02/11 02:18:23;;;;;;;26.20;17.30;;;;;;;0.63;76.47;100984.39;104946;1269;60260;-71
2023/02/11 02:20:51;;;;;;;28.20;18.20;;;;;;;0.65;76.18;100983.32;104941;1269;60999;-71
2023/02/11 02:23:53;;;;;;;26.80;16.10;;;;;;;0.67;75.95;100986.84;104975;1274;72203;-70
2023/02/11 02:26:51;;;;;;;28.90;19.00;;;;;;;0.67;75.60;100985.63;105043;1274;67368;-71
2023/02/11 02:29:23;;;;;;;29.50;17.30;;;;;;;0.66;75.53;100979.83;104589;1264;642390;-71
2023/02/11 02:32:12;;;;;;;23.90;17.30;;;;;;;0.66;75.37;100978.24;105122;1263;59447;-71
2023/02/11 02:35:01;;;;;;;29.20;17.70;;;;;;;0.65;75.21;100982.56;105624;1259;61808;-71
2023/02/11 02:37:37;;;;;;;26.20;16.40;;;;;;;0.65;75.28;100986.66;105640;1259;74345;-71
2023/02/11 02:40:14;;;;;;;27.00;17.10;;;;;;;0.64;75.32;100983.71;105472;1262;67705;-70
2023/02/11 02:42:44;;;;;;;32.40;20.70;;;;;;;0.64;75.28;100985.33;105016;1262;74700;-71
2023/02/11 02:45:12;;;;;;;29.70;17.60;;;;;;;0.64;75.43;100976.13;104841;1262;61301;-72
2023/02/11 02:47:42;;;;;;;38.00;18.80;;;;;;;0.68;75.30;100981.89;105113;1261;60976;-71
2023/02/11 02:50:10;;;;;;;28.20;19.30;;;;;;;0.72;75.59;100979.93;105594;1260;72889;-72
2023/02/11 02:53:01;;;;;;;29.70;18.90;;;;;;;0.77;75.57;100980.64;105534;1259;68607;-72
2023/02/11 02:55:48;;;;;;;31.50;18.10;;;;;;;0.84;75.66;100979.62;105457;1265;74032;-71
2023/02/11 02:58:30;;;;;;;31.00;19.70;;;;;;;0.85;75.68;100978.97;105169;1263;60527;-71
2023/02/11 03:01:17;;;;;;;30.20;17.60;;;;;;;0.83;75.85;100976.27;105649;1260;60577;-72
2023/02/11 03:04:02;;;;;;;31.80;20.60;;;;;;;0.82;76.31;100972.73;105131;1263;73990;-73
2023/02/11 03:06:52;;;;;;;31.80;20.90;;;;;;;0.81;76.37;100975.14;105577;1263;69806;-70
2023/02/11 03:09:25;;;;;;;34.60;20.20;;;;;;;0.79;76.56;100976.88;105533;1265;73610;-71
2023/02/11 03:11:53;;;;;;;31.40;20.00;;;;;;;0.78;76.43;100976.49;105627;1260;59634;-72
2023/02/11 03:14:21;;;;;;;31.50;21.20;;;;;;;0.76;76.57;100978.77;105130;1265;59564;-72
2023/02/11 03:16:49;;;;;;;26.10;18.80;;;;;;;0.75;76.84;100984.34;108863;1260;72727;-70
2023/02/11 03:19:20;;;;;;;33.00;22.30;;;;;;;0.74;77.01;100987.33;108852;1260;68249;-70
2023/02/11 03:21:49;;;;;;;33.70;22.10;;;;;;;0.72;77.31;100981.52;108872;1259;71686;-69
2023/02/11 03:24:29;;;;;;;32.90;21.40;;;;;;;0.69;77.40;100976.70;108906;1260;60572;-70
2023/02/11 03:27:17;;;;;;;39.90;24.30;;;;;;;0.69;77.76;100971.77;108887;1261;60716;-71
2023/02/11 03:30:07;;;;;;;35.40;20.90;;;;;;;0.70;78.19;100962.45;108843;1260;72421;-71
2023/02/11 03:32:49;;;;;;;31.10;22.40;;;;;;;0.74;78.34;100957.81;108825;1259;68552;-70
2023/02/11 03:35:23;;;;;;;34.00;20.20;;;;;;;0.78;78.60;100955.45;108864;1259;72671;-70
2023/02/11 03:37:53;;;;;;;29.90;19.90;;;;;;;0.81;78.53;100956.38;108933;1259;57389;-69
2023/02/11 03:40:44;;;;;;;34.80;21.30;;;;;;;0.82;78.61;100952.05;108890;1260;58996;-70
2023/02/11 03:43:18;;;;;;;33.60;21.80;;;;;;;0.83;78.44;100949.79;108870;1260;71716;-70
2023/02/11 03:45:46;;;;;;;33.80;20.50;;;;;;;0.84;78.14;100943.73;108831;1260;69159;-70
2023/02/11 03:48:19;;;;;;;30.20;20.30;;;;;;;0.83;78.29;100944.19;108864;1260;72945;-70
2023/02/11 03:50:48;;;;;;;34.90;22.60;;;;;;;0.82;78.48;100939.91;108820;1260;60489;-70
2023/02/11 03:53:16;;;;;;;30.70;20.90;;;;;;;0.82;78.52;100940.11;108912;1260;60025;-70
2023/02/11 03:55:44;;;;;;;35.40;20.30;;;;;;;0.80;78.56;100934.06;108899;1260;72281;-70
2023/02/11 03:58:12;;;;;;;31.40;21.90;;;;;;;0.79;78.45;100930.86;108776;1260;67197;-68
2023/02/11 04:00:41;;;;;;;32.50;21.60;;;;;;;0.77;78.33;100921.84;108944;1260;72175;-69
2023/02/11 04:03:11;;;;;;;35.00;20.80;;;;;;;0.75;78.18;100919.98;108939;1259;60221;-70
2023/02/11 04:05:39;;;;;;;23.70;16.40;;;;;;;0.73;78.11;100917.12;108949;1260;61582;-70
2023/02/11 04:08:07;;;;;;;30.40;20.70;;;;;;;0.73;78.28;100914.14;109055;1263;74249;-69
2023/02/11 04:10:35;;;;;;;29.40;21.00;;;;;;;0.75;78.31;100915.91;109042;1260;67952;-70
2023/02/11 04:13:05;;;;;;;27.60;16.60;;;;;;;0.78;78.58;100915.09;109026;1260;71601;-71
2023/02/11 04:15:33;;;;;;;30.30;17.80;;;;;;;0.80;78.38;100909.72;109017;1260;57810;-68
2023/02/11 04:18:02;;;;;;;30.30;20.30;;;;;;;0.81;78.16;100908.61;109030;1260;59218;-70
2023/02/11 04:20:31;;;;;;;34.80;21.70;;;;;;;0.79;78.17;100905.73;109064;1260;70986;-69
2023/02/11 04:22:59;;;;;;;30.30;19.10;;;;;;;0.78;78.28;100906.19;108299;1259;1002057;-70
2023/02/11 04:25:28;;;;;;;32.80;19.70;;;;;;;0.80;78.08;100906.71;109061;1260;73529;-70
2023/02/11 04:27:56;;;;;;;31.50;20.90;;;;;;;0.81;78.11;100911.61;109019;1260;58544;-69
2023/02/11 04:30:24;;;;;;;30.10;20.60;;;;;;;0.79;78.18;100905.19;109064;1263;59308;-71
2023/02/11 04:32:53;;;;;;;29.20;19.00;;;;;;;0.80;78.13;100902.54;109102;1260;70825;-70
2023/02/11 04:35:22;;;;;;;29.30;20.40;;;;;;;0.79;78.15;100897.16;109100;1260;67888;-70
2023/02/11 04:37:50;;;;;;;38.30;23.60;;;;;;;0.79;78.25;100898.41;108972;1260;72411;-69
2023/02/11 04:40:18;;;;;;;43.60;23.90;;;;;;;0.75;78.27;100898.04;109060;1259;60162;-68
2023/02/11 04:42:46;;;;;;;38.00;20.90;;;;;;;0.75;78.24;100895.09;109082;1260;58132;-67
2023/02/11 04:45:14;;;;;;;34.80;21.40;;;;;;;0.76;78.07;100889.11;109080;1261;72054;-69
2023/02/11 04:47:42;;;;;;;34.20;19.90;;;;;;;0.81;78.53;100884.17;109113;1258;66632;-69
2023/02/11 04:50:10;;;;;;;33.60;19.90;;;;;;;0.88;78.22;100886.16;109103;1259;70926;-68
2023/02/11 04:52:38;;;;;;;38.60;20.10;;;;;;;0.95;78.28;100876.65;108998;1258;59798;-69
2023/02/11 04:55:07;;;;;;;31.90;20.30;;;;;;;0.99;77.99;100871.61;109111;1258;60729;-68
2023/02/11 04:57:36;;;;;;;32.10;20.00;;;;;;;1.02;78.06;100868.58;109119;1258;74071;-68
2023/02/11 05:00:05;;;;;;;28.90;19.40;;;;;;;1.04;77.59;100868.59;109096;1258;66656;-71
2023/02/11 05:02:34;;;;;;;41.90;20.60;;;;;;;1.04;77.32;100861.93;109061;1261;73219;-70
2023/02/11 05:05:03;;;;;;;29.20;20.70;;;;;;;1.01;77.30;100858.34;109005;1260;60159;-70
2023/02/11 05:07:32;;;;;;;36.00;20.00;;;;;;;0.99;77.21;100859.04;109059;1260;60292;-71
2023/02/11 05:10:00;;;;;;;26.90;19.00;;;;;;;1.00;77.12;100859.54;109017;1260;72527;-70
2023/02/11 05:12:28;;;;;;;34.40;20.30;;;;;;;0.98;77.01;100859.52;109058;1260;67104;-70
2023/02/11 05:14:56;;;;;;;30.30;19.90;;;;;;;0.96;77.13;100861.66;109043;1263;70357;-69
2023/02/11 05:17:24;;;;;;;39.20;23.80;;;;;;;0.96;77.20;100859.21;109027;1261;59567;-70
2023/02/11 05:19:52;;;;;;;37.50;19.80;;;;;;;0.96;77.17;100857.23;109058;1259;60303;-72
2023/02/11 05:22:21;;;;;;;29.80;19.30;;;;;;;0.96;77.19;100858.98;109056;1259;72748;-70
2023/02/11 05:24:49;;;;;;;28.10;20.00;;;;;;;0.95;77.18;100859.52;109082;1259;68462;-69
2023/02/11 05:27:17;;;;;;;35.00;21.30;;;;;;;0.92;77.22;100858.52;109056;1259;71316;-70
2023/02/11 05:29:45;;;;;;;34.90;24.50;;;;;;;0.91;77.32;100856.94;109035;1260;59983;-69
2023/02/11 05:32:13;;;;;;;39.30;23.40;;;;;;;0.89;77.35;100857.30;109086;1259;59014;-69
2023/02/11 05:34:42;;;;;;;37.90;24.30;;;;;;;0.91;77.45;100854.45;109044;1260;73836;-72
2023/02/11 05:37:14;;;;;;;46.10;28.10;;;;;;;0.97;77.54;100854.71;109068;1260;67039;-70
2023/02/11 05:39:42;;;;;;;44.80;25.60;;;;;;;1.04;77.54;100857.86;109095;1261;73511;-70
2023/02/11 05:42:12;;;;;;;38.80;22.90;;;;;;;1.10;77.50;100853.51;109014;1261;58136;-69
2023/02/11 05:44:40;;;;;;;39.20;23.90;;;;;;;1.14;77.30;100851.48;109051;1260;60558;-70
2023/02/11 05:47:09;;;;;;;42.00;22.20;;;;;;;1.16;77.10;100852.52;109077;1259;72620;-71
2023/02/11 05:49:38;;;;;;;32.20;22.00;;;;;;;1.15;76.94;100853.85;109079;1263;66767;-69
2023/02/11 05:52:07;;;;;;;32.40;21.90;;;;;;;1.13;76.85;100849.08;109038;1260;72935;-71
2023/02/11 05:54:36;;;;;;;35.10;24.70;;;;;;;1.11;76.94;100850.00;109016;1261;57374;-72
2023/02/11 05:57:04;;;;;;;37.80;22.40;;;;;;;1.04;76.93;100848.62;109055;1260;60705;-70
2023/02/11 05:59:32;;;;;;;39.80;24.40;;;;;;;0.99;77.16;100841.95;109025;1260;70447;-69
2023/02/11 06:02:01;;;;;;;35.80;24.00;;;;;;;0.97;77.45;100838.98;109056;1260;66099;-69
2023/02/11 06:04:29;;;;;;;44.90;27.00;;;;;;;0.95;77.77;100839.21;109009;1260;71694;-70
2023/02/11 06:06:58;;;;;;;41.40;26.50;;;;;;;0.89;77.85;100830.21;108978;1263;58100;-70
2023/02/11 06:09:27;;;;;;;45.80;27.40;;;;;;;0.83;78.16;100823.94;108993;1265;61591;-69
2023/02/11 06:11:55;;;;;;;37.90;25.10;;;;;;;0.79;78.45;100818.36;108984;1260;71841;-71
2023/02/11 06:14:23;;;;;;;44.10;25.80;;;;;;;0.76;78.70;100807.42;109060;1259;68213;-69
2023/02/11 06:16:52;;;;;;;46.00;25.70;;;;;;;0.76;79.08;100803.36;108982;1260;72688;-70
2023/02/11 06:19:21;;;;;;;44.40;28.20;;;;;;;0.76;79.24;100800.77;109015;1260;59867;-71
2023/02/11 06:21:49;;;;;;;45.60;26.80;;;;;;;0.72;79.60;100800.39;108991;1259;58466;-71
2023/02/11 06:24:17;;;;;;;35.00;24.40;;;;;;;0.76;79.76;100796.86;108987;1259;71714;-72
2023/02/11 06:27:06;;;;;;;41.80;26.20;;;;;;;0.74;79.96;100797.25;108812;1264;68367;-73
2023/02/11 06:29:34;;;;;;;48.50;28.40;;;;;;;0.65;80.34;100793.61;108849;1263;73937;-71
2023/02/11 06:32:02;;;;;;;41.00;27.90;;;;;;;0.56;80.62;100792.10;108764;1263;58255;-74
2023/02/11 06:34:31;;;;;;;49.60;30.20;;;;;;;0.52;80.83;100796.23;108717;1263;59039;-71
2023/02/11 06:37:02;;;;;;;41.40;27.20;;;;;;;0.54;81.35;100792.81;108800;1264;74965;-71
2023/02/11 06:39:31;;;;;;;43.70;27.80;;;;;;;0.53;81.39;100786.54;108857;1263;68173;-70
2023/02/11 06:42:02;;;;;;;46.70;28.70;;;;;;;0.59;81.77;100785.55;108701;1264;72023;-71
2023/02/11 06:44:33;;;;;;;44.60;28.70;;;;;;;0.68;81.87;100780.95;108044;1260;1002287;-71
2023/02/11 06:47:04;;;;;;;50.40;30.30;;;;;;;0.76;81.84;100768.47;109029;1259;60797;-75
2023/02/11 06:49:33;;;;;;;50.50;33.90;;;;;;;0.82;81.93;100764.98;108852;1260;74605;-71
2023/02/11 06:52:02;;;;;;;55.60;30.90;;;;;;;0.88;81.80;100766.96;109042;1260;67240;-73
2023/02/11 06:54:30;;;;;;;43.70;29.90;;;;;;;0.91;81.61;100759.95;108964;1261;70734;-71
2023/02/11 06:56:58;;;;;;;49.70;32.20;;;;;;;0.90;81.77;100753.89;108945;1260;58250;-72
2023/02/11 06:59:26;;;;;;;45.50;30.10;;;;;;;0.90;81.66;100748.05;109047;1260;59486;-70
2023/02/11 07:01:54;;;;;;;41.20;26.40;;;;;;;0.88;81.75;100744.17;109059;1260;72761;-70
2023/02/11 07:04:23;;;;;;;45.80;30.10;;;;;;;0.88;81.70;100740.87;108983;1260;67325;-70
2023/02/11 07:06:51;;;;;;;50.10;29.70;;;;;;;0.87;81.97;100736.56;109005;1260;71195;-72
2023/02/11 07:09:19;;;;;;;39.70;26.60;;;;;;;0.87;82.04;100733.15;108935;1260;60731;-71
2023/02/11 07:11:48;;;;;;;38.90;25.90;;;;;;;0.92;82.22;100732.38;108980;1260;60503;-69
2023/02/11 07:14:16;;;;;;;36.50;26.40;;;;;;;0.94;81.91;100730.85;109012;1260;75091;-73
2023/02/11 07:16:44;;;;;;;51.40;30.30;;;;;;;0.96;81.98;100733.96;108917;1260;69149;-71
2023/02/11 07:19:15;;;;;;;38.90;26.00;;;;;;;1.01;81.78;100734.58;108957;1264;73594;-70
2023/02/11 07:21:43;;;;;;;35.80;23.50;;;;;;;1.04;81.49;100735.41;108949;1260;59448;-70
2023/02/11 07:24:15;;;;;;;35.90;26.20;;;;;;;1.05;81.44;100732.52;109019;1260;59365;-70
2023/02/11 07:26:49;;;;;;;35.30;23.70;;;;;;;1.06;81.12;100729.95;109012;1260;75037;-68
2023/02/11 07:29:17;;;;;;;40.30;25.60;;;;;;;1.08;81.03;100731.27;109010;1260;67141;-69
2023/02/11 07:31:45;;;;;;;45.50;26.60;;;;;;;1.09;81.08;100728.48;108968;1260;71733;-70
2023/02/11 07:34:15;;;;;;;42.40;26.80;;;;;;;1.10;80.59;100726.61;108972;1260;61424;-69
2023/02/11 07:36:44;;;;;;;42.60;25.90;;;;;;;1.09;80.55;100721.45;108979;1260;59719;-70
2023/02/11 07:39:12;;;;;;;43.80;26.70;;;;;;;1.11;80.56;100726.88;108958;1260;73046;-71
2023/02/11 07:41:41;;;;;;;35.70;24.10;;;;;;;1.18;80.61;100727.39;109034;1260;66128;-68
2023/02/11 07:44:10;;;;;;;42.60;26.30;;;;;;;1.26;80.42;100733.09;108995;1260;72632;-70
2023/02/11 07:46:41;;;;;;;41.60;24.80;;;;;;;1.29;80.17;100730.73;108915;1260;58754;-70
2023/02/11 07:49:11;;;;;;;39.80;26.10;;;;;;;1.34;80.04;100726.61;109033;1260;59435;-70
2023/02/11 07:51:39;;;;;;;40.70;26.40;;;;;;;1.37;79.90;100721.61;108983;1260;73692;-70
2023/02/11 07:54:07;;;;;;;44.50;29.60;;;;;;;1.35;79.52;100716.94;108958;1260;66644;-71
2023/02/11 07:56:35;;;;;;;42.10;26.00;;;;;;;1.32;79.37;100710.87;108970;1260;72179;-68
2023/02/11 07:59:03;;;;;;;46.10;24.80;;;;;;;1.32;79.60;100703.45;108978;1260;58181;-70
2023/02/11 08:01:32;;;;;;;39.50;25.20;;;;;;;1.32;79.57;100694.98;108953;1260;59154;-72
2023/02/11 08:04:00;;;;;;;36.70;23.90;;;;;;;1.30;79.56;100689.32;108815;1263;72717;-72
2023/02/11 08:06:30;;;;;;;36.70;25.50;;;;;;;1.30;79.81;100686.28;108872;1262;68083;-69
2023/02/11 08:09:04;;;;;;;51.90;29.30;;;;;;;1.30;79.94;100675.75;108882;1266;73934;-70
2023/02/11 08:11:33;;;;;;;49.50;28.50;;;;;;;1.31;80.05;100675.91;108917;1262;59710;-68
2023/02/11 08:14:01;;;;;;;45.00;27.90;;;;;;;1.37;80.22;100669.34;108939;1262;60826;-69
2023/02/11 08:16:32;;;;;;;50.00;29.30;;;;;;;1.44;80.31;100671.21;108921;1262;73395;-70
2023/02/11 08:19:03;;;;;;;42.50;27.70;;;;;;;1.50;80.34;100670.05;108943;1261;67225;-69
2023/02/11 08:21:34;;;;;;;45.70;28.80;;;;;;;1.55;80.14;100671.57;108932;1262;72205;-69
2023/02/11 08:24:03;;;;;;;45.00;28.10;;;;;;;1.57;80.34;100665.86;108905;1263;58493;-70
2023/02/11 08:26:33;;;;;;;37.10;25.10;;;;;;;1.62;80.26;100665.13;108886;1263;59175;-69
2023/02/11 08:29:04;;;;;;;45.20;28.20;;;;;;;1.65;80.28;100660.68;108914;1263;73256;-70
2023/02/11 08:31:33;;;;;;;49.10;30.20;;;;;;;1.67;80.21;100653.79;108853;1262;68382;-69
2023/02/11 08:34:02;;;;;;;42.80;25.80;;;;;;;1.67;80.05;100649.35;108910;1263;70905;-69
2023/02/11 08:36:33;;;;;;;47.70;25.10;;;;;;;1.70;80.13;100647.48;108917;1262;58153;-69
2023/02/11 08:39:04;;;;;;;40.00;27.70;;;;;;;1.74;80.28;100646.81;108946;1262;60017;-70
2023/02/11 08:41:51;;;;;;;46.00;24.50;;;;;;;1.81;80.13;100647.89;108910;1263;75052;-68
2023/02/11 08:44:19;;;;;;;;;;;;;;;1.87;80.37;100643.98;108920;1262;66650;-70
2023/02/11 08:46:49;;;;;;;45.00;27.00;;;;;;;1.93;80.47;100643.48;108861;1262;70964;-70
2023/02/11 08:49:17;;;;;;;53.00;28.10;;;;;;;2.02;80.49;100643.54;108906;1262;59559;-70
2023/02/11 08:51:46;;;;;;;42.70;26.80;;;;;;;2.10;80.51;100639.94;108902;1263;61512;-68
2023/02/11 08:54:14;;;;;;;37.00;25.00;;;;;;;2.09;80.24;100630.48;108828;1263;73256;-70
2023/02/11 08:56:42;;;;;;;37.50;23.90;;;;;;;2.06;80.52;100633.48;108775;1262;66249;-69
2023/02/11 08:59:12;;;;;;;37.20;23.10;;;;;;;2.07;80.52;100629.79;108866;1262;71236;-68
2023/02/11 09:01:42;;;;;;;34.50;21.90;;;;;;;2.08;80.50;100627.07;108917;1261;58191;-69
2023/02/11 09:04:11;;;;;;;40.60;23.40;;;;;;;2.09;80.65;100619.97;108903;1263;58963;-70
2023/02/11 09:06:41;;;;;;;41.50;25.90;;;;;;;2.08;80.76;100616.52;108821;1262;72243;-71
2023/02/11 09:09:12;;;;;;;32.80;22.90;;;;;;;2.09;80.67;100613.51;108923;1263;68886;-70
2023/02/11 09:11:41;;;;;;;40.10;24.40;;;;;;;2.10;80.80;100618.23;108909;1262;72143;-70
2023/02/11 09:14:15;;;;;;;38.90;25.40;;;;;;;2.08;80.69;100618.26;108750;1263;60862;-70
2023/02/11 09:16:43;;;;;;;;;;;;;;;2.09;81.07;100609.66;108815;1263;61122;-70
2023/02/11 09:19:12;;;;;;;42.00;26.40;;;;;;;2.09;81.08;100606.84;108920;1262;73055;-70
2023/02/11 09:21:40;;;;;;;47.10;26.10;;;;;;;2.10;81.24;100595.23;108935;1263;66120;-72
2023/02/11 09:24:10;;;;;;;51.20;28.60;;;;;;;2.09;81.22;100586.02;108901;1263;72865;-72
2023/02/11 09:26:40;;;;;;;39.90;25.60;;;;;;;2.10;81.30;100580.04;108888;1263;59535;-72
2023/02/11 09:29:09;;;;;;;50.50;29.10;;;;;;;2.12;81.35;100573.02;108828;1261;59314;-69
2023/02/11 09:31:39;;;;;;;40.00;24.90;;;;;;;2.15;81.28;100569.20;108829;1263;74744;-71
2023/02/11 09:34:09;;;;;;;47.00;29.70;;;;;;;2.12;81.32;100572.02;108797;1263;65951;-70
2023/02/11 09:36:39;;;;;;;56.00;29.80;;;;;;;2.03;81.60;100567.00;108879;1262;71521;-73
2023/02/11 09:39:11;;;;;;;46.60;27.60;;;;;;;2.01;81.79;100561.22;108741;1263;61283;-71
2023/02/11 09:42:01;;;;;;;51.20;30.30;;;;;;;2.01;81.99;100564.30;108918;1262;58197;-71
2023/02/11 09:44:32;;;;;;;53.90;30.60;;;;;;;2.04;81.90;100559.30;108844;1262;72070;-73
2023/02/11 09:47:20;;;;;;;51.10;31.30;;;;;;;2.10;81.98;100561.73;108834;1263;66735;-72
2023/02/11 09:49:53;;;;;;;46.50;27.00;;;;;;;2.15;81.88;100559.63;108868;1262;72648;-73
2023/02/11 09:52:34;;;;;;;43.30;29.00;;;;;;;2.13;81.75;100552.79;108716;1262;59710;-70
2023/02/11 09:55:05;;;;;;;49.40;31.40;;;;;;;2.08;81.78;100548.02;108914;1262;60036;-70
2023/02/11 09:57:36;;;;;;;43.30;27.50;;;;;;;2.08;82.01;100545.25;108843;1263;74809;-71
2023/02/11 10:00:26;;;;;;;51.50;31.00;;;;;;;2.07;81.92;100536.06;108903;1262;67685;-70
2023/02/11 10:03:34;;;;;;;52.10;29.40;;;;;;;2.03;82.14;100529.89;108787;1262;71976;-71
2023/02/11 10:06:23;;;;;;;55.00;32.30;;;;;;;2.03;82.28;100520.27;108765;1262;59246;-73
2023/02/11 10:09:25;;;;;;;55.90;31.20;;;;;;;2.07;82.37;100515.81;108885;1262;59336;-70
2023/02/11 10:12:34;;;;;;;51.30;30.60;;;;;;;2.13;82.51;100513.16;108809;1263;73839;-71
2023/02/11 10:15:41;;;;;;;55.40;30.30;;;;;;;2.17;82.45;100507.48;108811;1263;67616;-71
2023/02/11 10:18:54;;;;;;;45.40;25.90;;;;;;;2.23;82.63;100499.66;108794;1263;70710;-70
2023/02/11 10:22:14;;;;;;;51.20;29.60;;;;;;;2.28;82.56;100494.15;108753;1262;59348;-68
2023/02/11 10:24:57;;;;;;;42.00;29.40;;;;;;;2.30;82.37;100482.33;108798;1263;61320;-69
2023/02/11 10:27:34;;;;;;;43.90;28.40;;;;;;;2.29;82.46;100474.71;108812;1262;73053;-68
2023/02/11 10:30:55;;;;;;;44.60;28.00;;;;;;;2.27;82.52;100467.30;108806;1262;66903;-70
2023/02/11 10:33:53;;;;;;;49.00;28.20;;;;;;;2.27;82.79;100463.56;108802;1263;72321;-70
2023/02/11 10:36:30;;;;;;;37.80;24.70;;;;;;;2.29;83.03;100461.20;108808;1262;58657;-69
2023/02/11 10:39:01;;;;;;;45.60;26.00;;;;;;;2.33;83.08;100458.48;108797;1263;62186;-70
2023/02/11 10:41:33;;;;;;;42.70;27.10;;;;;;;2.38;82.99;100455.72;108668;1262;73837;-70
2023/02/11 10:44:06;;;;;;;49.60;31.00;;;;;;;2.35;83.05;100450.20;108827;1262;67655;-70
2023/02/11 10:46:39;;;;;;;43.50;26.00;;;;;;;2.33;83.20;100446.96;108848;1263;73793;-71
2023/02/11 10:49:10;;;;;;;45.20;27.30;;;;;;;2.32;83.37;100438.05;108784;1262;59591;-70
2023/02/11 10:51:41;;;;;;;43.00;28.70;;;;;;;2.33;83.45;100439.40;108768;1263;60507;-69
2023/02/11 10:54:20;;;;;;;49.40;31.00;;;;;;;2.33;83.46;100437.05;108811;1262;72568;-72
2023/02/11 10:56:58;;;;;;;45.50;28.50;;;;;;;2.33;83.61;100427.33;108772;1263;68076;-69
2023/02/11 10:59:39;;;;;;;53.00;29.00;;;;;;;2.36;83.82;100422.35;108794;1262;72829;-69
2023/02/11 11:10:43;;;;;;;48.30;29.00;;;;;;;2.60;84.10;100392.61;102760;1291;600694;-70
2023/02/11 11:13:32;;;;;;;55.10;30.60;;;;;;;2.62;84.01;100382.39;104671;1266;60478;-69
2023/02/11 11:16:12;;;;;;;44.70;27.10;;;;;;;2.66;84.19;100379.19;104446;1266;60982;-70
2023/02/11 11:18:43;;;;;;;42.30;26.30;;;;;;;2.63;84.04;100371.52;105016;1267;72879;-68
2023/02/11 11:21:12;;;;;;;47.60;29.70;;;;;;;2.58;84.26;100370.55;104522;1263;1003649;-69
2023/02/11 11:23:40;;;;;;;41.10;28.10;;;;;;;2.51;84.52;100364.98;104640;1265;632356;-69
2023/02/11 11:26:12;;;;;;;50.90;32.00;;;;;;;2.46;84.82;100363.10;105071;1259;61714;-72
2023/02/11 11:28:48;;;;;;;43.70;26.60;;;;;;;2.44;85.05;100356.45;105160;1265;59375;-72
2023/02/11 11:31:19;;;;;;;41.70;27.60;;;;;;;2.45;85.57;100349.40;105015;1264;74106;-70
2023/02/11 11:33:48;;;;;;;44.90;29.90;;;;;;;2.49;85.37;100347.17;105201;1263;67936;-70
2023/02/11 11:36:19;;;;;;;44.90;28.00;;;;;;;2.54;85.37;100337.19;104755;1263;75202;-69
2023/02/11 11:38:57;;;;;;;50.20;30.80;;;;;;;2.57;85.29;100326.21;105048;1265;60546;-70
2023/02/11 11:41:29;;;;;;;38.30;26.40;;;;;;;2.58;85.09;100316.42;105439;1267;61392;-68
2023/02/11 11:44:20;;;;;;;51.10;31.80;;;;;;;2.54;85.42;100316.30;104919;1265;73465;-70
2023/02/11 11:47:14;;;;;;;42.30;28.30;;;;;;;2.52;85.52;100318.21;105602;1259;68702;-70
2023/02/11 11:50:01;;;;;;;47.70;30.00;;;;;;;2.48;85.63;100311.15;104962;1259;72535;-70
2023/02/11 11:52:30;;;;;;;46.40;29.10;;;;;;;2.48;85.71;100295.80;105533;1259;61377;-69
2023/02/11 11:55:04;;;;;;;46.90;31.90;;;;;;;2.50;85.90;100288.82;105667;1262;60617;-71
2023/02/11 11:57:33;;;;;;;40.80;29.30;;;;;;;2.55;86.05;100278.20;105164;1265;72519;-70